TimeIST,TemperatureF,Dew PointF,Humidity,Sea Level PressureIn,VisibilityMPH,Wind Direction,Wind SpeedMPH,Gust SpeedMPH,PrecipitationIn,Events,Conditions,WindDirDegrees,DateUTC
12:00 AM,57.2,57.2,100,30.09,1.9,Calm,Calm,-,N/A,,Drizzle,0,2013-02-23 18:30:00
12:30 AM,-9999,-9999,N/A,30.09,1.9,Calm,Calm,11.5,N/A,,Drizzle,0,2013-02-23 19:00:00
1:00 AM,55.4,55.4,100,30.09,1.9,Calm,Calm,-,N/A,,Drizzle,0,2013-02-23 19:30:00
1:30 AM,-9999,-9999,N/A,30.09,1.9,Calm,Calm,-,N/A,,Drizzle,0,2013-02-23 20:00:00
2:00 AM,-9999,-9999,N/A,30.09,1.9,Calm,Calm,-,N/A,,Drizzle,0,2013-02-23 20:30:00
2:30 AM,55,55,100,30.11,1,Calm,Calm,,,Rain,Light Drizzle,,2013-02-23 21:00:00
2:30 AM,-9999,-9999,N/A,30.09,1.9,Calm,Calm,-,N/A,,Drizzle,0,2013-02-23 21:00:00
3:00 AM,55.4,55.4,100,30.09,1.9,Calm,Calm,-,N/A,,Drizzle,0,2013-02-23 21:30:00
3:30 AM,53.6,53.6,100,30.09,1.9,Calm,Calm,-,N/A,,Drizzle,0,2013-02-23 22:00:00
4:00 AM,53.6,53.6,100,30.09,1.9,Calm,Calm,-,N/A,,Drizzle,0,2013-02-23 22:30:00
4:30 AM,53.6,53.6,100,30.09,1.9,Calm,Calm,-,N/A,,Drizzle,0,2013-02-23 23:00:00
5:00 AM,53.6,53.6,100,30.09,1.9,Calm,Calm,-,N/A,,Overcast,0,2013-02-23 23:30:00
5:30 AM,54,54,100,30.10,1,Calm,Calm,,,,Mist,,2013-02-24 00:00:00
5:30 AM,53.6,53.6,100,30.09,1.9,Calm,Calm,-,N/A,,Overcast,0,2013-02-24 00:00:00
6:00 AM,55.4,55.4,100,30.09,1.9,Calm,Calm,-,N/A,,Overcast,0,2013-02-24 00:30:00
6:30 AM,55.4,55.4,100,30.09,1.9,Calm,Calm,-,N/A,,Scattered Clouds,0,2013-02-24 01:00:00
7:00 AM,55.4,55.4,100,30.09,1.9,Calm,Calm,-,N/A,,Overcast,0,2013-02-24 01:30:00
7:30 AM,55.4,55.4,100,30.12,1.9,Calm,Calm,-,N/A,,Overcast,0,2013-02-24 02:00:00
8:00 AM,55.4,55.4,100,30.12,1.2,Calm,Calm,-,N/A,,Overcast,0,2013-02-24 02:30:00
8:30 AM,56,56,100,30.16,1,Calm,Calm,,,,Mist,,2013-02-24 03:00:00
8:30 AM,55.4,55.4,100,30.15,1.2,Calm,Calm,-,N/A,,Overcast,0,2013-02-24 03:00:00
9:00 AM,57.2,57.2,100,30.15,2.5,Calm,Calm,-,N/A,,Mostly Cloudy,0,2013-02-24 03:30:00
9:30 AM,57.2,57.2,100,30.15,3.1,Calm,Calm,-,N/A,,Mostly Cloudy,0,2013-02-24 04:00:00
10:00 AM,59.0,59.0,100,30.18,3.1,Calm,Calm,-,N/A,,Mostly Cloudy,0,2013-02-24 04:30:00
10:30 AM,59.0,59.0,100,30.18,3.1,Calm,Calm,-,N/A,,Mostly Cloudy,0,2013-02-24 05:00:00
11:00 AM,62.6,62.6,100,30.18,3.1,Calm,Calm,-,N/A,,Mostly Cloudy,0,2013-02-24 05:30:00
11:30 AM,62.6,62.6,100,30.18,3.1,Calm,Calm,-,N/A,,Mostly Cloudy,0,2013-02-24 06:00:00
12:00 PM,64.4,64.4,100,30.18,3.1,Calm,Calm,-,N/A,,Mostly Cloudy,0,2013-02-24 06:30:00
12:30 PM,66.2,64.4,94,30.15,3.7,Variable,1.2,-,N/A,,Scattered Clouds,0,2013-02-24 07:00:00
1:00 PM,66.2,57.2,73,30.15,3.7,ENE,4.6,-,N/A,,Scattered Clouds,70,2013-02-24 07:30:00
1:30 PM,68.0,55.4,64,30.12,3.7,East,4.6,-,N/A,,Scattered Clouds,80,2013-02-24 08:00:00
2:00 PM,68.0,55.4,64,30.12,3.7,East,4.6,-,N/A,,Scattered Clouds,100,2013-02-24 08:30:00
2:30 PM,69.8,57.2,64,30.09,3.7,East,6.9,-,N/A,,Scattered Clouds,90,2013-02-24 09:00:00
3:00 PM,69.8,57.2,64,30.09,3.7,ENE,6.9,-,N/A,,Scattered Clouds,70,2013-02-24 09:30:00
3:30 PM,68.0,57.2,68,30.09,3.7,ESE,5.8,-,N/A,,Scattered Clouds,120,2013-02-24 10:00:00
4:00 PM,69.8,57.2,64,30.09,3.7,Variable,3.5,-,N/A,,Scattered Clouds,0,2013-02-24 10:30:00
5:00 PM,68.0,57.2,68,30.06,3.7,South,5.8,-,N/A,,Mostly Cloudy,180,2013-02-24 11:30:00
5:30 PM,67,58,66,30.06,2,Calm,Calm,,,,Scattered Clouds,,2013-02-24 12:00:00
5:30 PM,66.2,59.0,78,30.06,3.7,Variable,1.2,-,N/A,,Scattered Clouds,0,2013-02-24 12:00:00
6:00 PM,66.2,59.0,78,30.06,3.7,Calm,Calm,-,N/A,,Partly Cloudy,0,2013-02-24 12:30:00
6:30 PM,62.6,59.0,88,30.06,3.1,Calm,Calm,-,N/A,,Partly Cloudy,0,2013-02-24 13:00:00
7:00 PM,60.8,57.2,88,30.09,2.5,Calm,Calm,-,N/A,,Partly Cloudy,0,2013-02-24 13:30:00
7:30 PM,59.0,57.2,94,30.09,2.5,Calm,Calm,-,N/A,,Partly Cloudy,0,2013-02-24 14:00:00
8:00 PM,59.0,57.2,94,30.09,2.5,Calm,Calm,-,N/A,,Partly Cloudy,0,2013-02-24 14:30:00
8:30 PM,57.2,57.2,100,30.12,2.5,Calm,Calm,-,N/A,,Mist,0,2013-02-24 15:00:00
9:00 PM,57.2,57.2,100,30.12,2.5,Calm,Calm,-,N/A,,Mist,0,2013-02-24 15:30:00
9:30 PM,57.2,57.2,100,30.12,2.5,Calm,Calm,-,N/A,,Mist,0,2013-02-24 16:00:00
10:00 PM,55.4,55.4,100,30.12,2.5,Calm,Calm,-,N/A,,Mist,0,2013-02-24 16:30:00
10:30 PM,55.4,55.4,100,30.12,2.2,Calm,Calm,-,N/A,,Mist,0,2013-02-24 17:00:00
11:30 PM,54,54,100,30.13,1,Calm,Calm,,,,Mist,,2013-02-24 18:00:00
11:30 PM,53.6,53.6,100,30.12,1.6,Calm,Calm,-,N/A,,Mist,0,2013-02-24 18:00:00